sensor_id;sensor_type;location;lat;lon;timestamp;pressure;altitude;pressure_sealevel;temperature;humidity
70072;BME280;57434;42.794;23.302;2023-04-12T00:00:53;94719.59;;;5.55;80.64
70072;BME280;57434;42.794;23.302;2023-04-12T00:01:55;94745.34;;;5.70;80.64
70072;BME280;57434;42.794;23.302;2023-04-12T00:02:57;94766.63;;;5.88;80.51
70072;BME280;57434;42.794;23.302;2023-04-12T00:03:59;94764.41;;;5.92;80.33
70072;BME280;57434;42.794;23.302;2023-04-12T00:05:01;94762.38;;;5.92;80.12
70072;BME280;57434;42.794;23.302;2023-04-12T00:06:03;94777.22;;;5.84;80.19
70072;BME280;57434;42.794;23.302;2023-04-12T00:07:05;94593.44;;;4.78;80.12
70072;BME280;57434;42.794;23.302;2023-04-12T00:08:07;94759.06;;;5.73;80.12
70072;BME280;57434;42.794;23.302;2023-04-12T00:09:08;94752.50;;;5.91;80.13
70072;BME280;57434;42.794;23.302;2023-04-12T00:10:10;94746.78;;;5.80;79.89
70072;BME280;57434;42.794;23.302;2023-04-12T00:11:12;94777.56;;;5.91;79.95
70072;BME280;57434;42.794;23.302;2023-04-12T00:12:13;94774.44;;;5.84;79.80
70072;BME280;57434;42.794;23.302;2023-04-12T00:13:15;94743.25;;;5.65;79.96
70072;BME280;57434;42.794;23.302;2023-04-12T00:14:17;94757.28;;;5.56;80.06
70072;BME280;57434;42.794;23.302;2023-04-12T00:15:18;94753.16;;;5.51;79.99
70072;BME280;57434;42.794;23.302;2023-04-12T00:16:20;94624.13;;;4.84;79.99
70072;BME280;57434;42.794;23.302;2023-04-12T00:17:22;94630.53;;;4.75;79.90
70072;BME280;57434;42.794;23.302;2023-04-12T00:18:24;94661.06;;;4.99;79.80
70072;BME280;57434;42.794;23.302;2023-04-12T00:19:26;94594.44;;;4.61;79.73
70072;BME280;57434;42.794;23.302;2023-04-12T00:20:28;94764.66;;;5.59;79.88
70072;BME280;57434;42.794;23.302;2023-04-12T00:21:30;94654.44;;;4.97;79.79
70072;BME280;57434;42.794;23.302;2023-04-12T00:22:31;94653.66;;;4.96;79.63
70072;BME280;57434;42.794;23.302;2023-04-12T00:23:33;94754.84;;;5.63;79.73
70072;BME280;57434;42.794;23.302;2023-04-12T00:24:38;94743.84;;;5.54;79.69
70072;BME280;57434;42.794;23.302;2023-04-12T00:25:40;94755.16;;;5.65;79.64
70072;BME280;57434;42.794;23.302;2023-04-12T00:26:42;94750.63;;;5.68;79.48
70072;BME280;57434;42.794;23.302;2023-04-12T00:27:43;94629.47;;;4.88;79.47
70072;BME280;57434;42.794;23.302;2023-04-12T00:28:45;94730.00;;;5.60;79.48
70072;BME280;57434;42.794;23.302;2023-04-12T00:29:47;94728.88;;;5.52;79.46
70072;BME280;57434;42.794;23.302;2023-04-12T00:30:48;94742.03;;;5.51;79.53
70072;BME280;57434;42.794;23.302;2023-04-12T00:31:50;94751.31;;;5.63;79.66
70072;BME280;57434;42.794;23.302;2023-04-12T00:32:52;94725.25;;;5.45;79.47
70072;BME280;57434;42.794;23.302;2023-04-12T00:33:54;94724.13;;;5.23;79.86
70072;BME280;57434;42.794;23.302;2023-04-12T00:34:56;94731.13;;;5.18;80.12
70072;BME280;57434;42.794;23.302;2023-04-12T00:35:57;94759.09;;;5.44;80.15
70072;BME280;57434;42.794;23.302;2023-04-12T00:37:00;94597.22;;;4.46;80.04
70072;BME280;57434;42.794;23.302;2023-04-12T00:38:02;94739.72;;;5.50;80.15
70072;BME280;57434;42.794;23.302;2023-04-12T00:39:04;94758.63;;;5.45;79.72
70072;BME280;57434;42.794;23.302;2023-04-12T00:40:07;94727.38;;;5.21;79.45
70072;BME280;57434;42.794;23.302;2023-04-12T00:41:09;94742.91;;;5.13;79.65
70072;BME280;57434;42.794;23.302;2023-04-12T00:42:11;94738.97;;;5.34;79.71
70072;BME280;57434;42.794;23.302;2023-04-12T00:43:12;94688.16;;;4.90;79.97
70072;BME280;57434;42.794;23.302;2023-04-12T00:44:14;94726.31;;;5.19;79.93
70072;BME280;57434;42.794;23.302;2023-04-12T00:45:16;94736.59;;;5.27;79.91
70072;BME280;57434;42.794;23.302;2023-04-12T00:46:18;94747.50;;;5.16;80.01
70072;BME280;57434;42.794;23.302;2023-04-12T00:47:20;94724.59;;;5.21;80.08
70072;BME280;57434;42.794;23.302;2023-04-12T00:48:23;94736.47;;;5.36;79.71
70072;BME280;57434;42.794;23.302;2023-04-12T00:49:28;94726.41;;;5.24;79.82
70072;BME280;57434;42.794;23.302;2023-04-12T00:50:30;94728.25;;;5.27;79.68
70072;BME280;57434;42.794;23.302;2023-04-12T00:51:32;94692.94;;;5.04;79.88
70072;BME280;57434;42.794;23.302;2023-04-12T00:52:33;94740.69;;;5.32;80.19
70072;BME280;57434;42.794;23.302;2023-04-12T00:53:36;94693.25;;;5.21;80.41
70072;BME280;57434;42.794;23.302;2023-04-12T00:54:38;94568.84;;;4.27;80.87
70072;BME280;57434;42.794;23.302;2023-04-12T00:55:43;94706.38;;;5.05;81.59
70072;BME280;57434;42.794;23.302;2023-04-12T00:56:45;94728.81;;;5.17;81.73
70072;BME280;57434;42.794;23.302;2023-04-12T00:57:47;94737.72;;;5.21;81.86
70072;BME280;57434;42.794;23.302;2023-04-12T00:58:48;94560.59;;;4.03;82.45
70072;BME280;57434;42.794;23.302;2023-04-12T00:59:50;94672.59;;;4.68;82.69
70072;BME280;57434;42.794;23.302;2023-04-12T01:00:52;94552.25;;;3.89;82.88
70072;BME280;57434;42.794;23.302;2023-04-12T01:01:54;94711.38;;;5.01;83.01
70072;BME280;57434;42.794;23.302;2023-04-12T01:02:57;94712.09;;;5.02;82.92
70072;BME280;57434;42.794;23.302;2023-04-12T01:03:59;94704.38;;;4.91;83.03
70072;BME280;57434;42.794;23.302;2023-04-12T01:05:01;94734.44;;;5.07;83.01
70072;BME280;57434;42.794;23.302;2023-04-12T01:06:13;94707.53;;;5.14;82.81
70072;BME280;57434;42.794;23.302;2023-04-12T01:07:46;94631.00;;;4.59;82.67
70072;BME280;57434;42.794;23.302;2023-04-12T01:09:02;94740.91;;;5.28;82.72
70072;BME280;57434;42.794;23.302;2023-04-12T01:10:24;94735.41;;;5.34;82.57
70072;BME280;57434;42.794;23.302;2023-04-12T01:11:41;94733.03;;;5.27;82.42
70072;BME280;57434;42.794;23.302;2023-04-12T01:15:15;94727.47;;;5.27;82.08
70072;BME280;57434;42.794;23.302;2023-04-12T01:16:37;94738.47;;;5.36;82.20
70072;BME280;57434;42.794;23.302;2023-04-12T01:18:03;94727.38;;;5.21;81.87
70072;BME280;57434;42.794;23.302;2023-04-12T01:21:12;94723.22;;;5.31;82.04
70072;BME280;57434;42.794;23.302;2023-04-12T01:22:19;94753.91;;;5.37;81.78
70072;BME280;57434;42.794;23.302;2023-04-12T01:23:52;94725.63;;;5.38;81.73
70072;BME280;57434;42.794;23.302;2023-04-12T01:25:03;94731.97;;;5.39;81.47
70072;BME280;57434;42.794;23.302;2023-04-12T01:27:44;94742.81;;;5.22;81.86
70072;BME280;57434;42.794;23.302;2023-04-12T01:28:46;94732.81;;;5.30;81.88
70072;BME280;57434;42.794;23.302;2023-04-12T01:29:52;94724.59;;;5.21;82.09
70072;BME280;57434;42.794;23.302;2023-04-12T01:30:57;94726.13;;;5.07;82.04
70072;BME280;57434;42.794;23.302;2023-04-12T01:32:01;94734.94;;;5.21;82.35
70072;BME280;57434;42.794;23.302;2023-04-12T01:33:06;94724.13;;;5.23;82.33
70072;BME280;57434;42.794;23.302;2023-04-12T01:34:11;94714.72;;;5.20;82.35
70072;BME280;57434;42.794;23.302;2023-04-12T01:35:14;94724.22;;;5.28;82.56
70072;BME280;57434;42.794;23.302;2023-04-12T01:36:20;94701.38;;;5.24;82.58
70072;BME280;57434;42.794;23.302;2023-04-12T01:37:23;94686.81;;;5.15;82.46
70072;BME280;57434;42.794;23.302;2023-04-12T01:38:26;94756.91;;;5.48;82.25
70072;BME280;57434;42.794;23.302;2023-04-12T01:39:28;94716.03;;;5.39;82.56
70072;BME280;57434;42.794;23.302;2023-04-12T01:40:31;94727.06;;;5.49;82.33
70072;BME280;57434;42.794;23.302;2023-04-12T01:41:38;94582.56;;;4.60;82.50
70072;BME280;57434;42.794;23.302;2023-04-12T01:42:40;94626.25;;;4.89;82.52
70072;BME280;57434;42.794;23.302;2023-04-12T01:43:43;94729.94;;;5.39;82.48
70072;BME280;57434;42.794;23.302;2023-04-12T01:44:45;94713.34;;;5.30;82.53
70072;BME280;57434;42.794;23.302;2023-04-12T01:45:47;94708.50;;;5.25;82.44
70072;BME280;57434;42.794;23.302;2023-04-12T01:46:49;94694.09;;;5.27;82.47
70072;BME280;57434;42.794;23.302;2023-04-12T01:47:51;94687.00;;;5.26;82.78
70072;BME280;57434;42.794;23.302;2023-04-12T01:48:54;94742.41;;;5.44;82.96
70072;BME280;57434;42.794;23.302;2023-04-12T01:52:30;94712.00;;;5.55;83.32
70072;BME280;57434;42.794;23.302;2023-04-12T01:54:48;94706.34;;;5.50;83.43
70072;BME280;57434;42.794;23.302;2023-04-12T01:55:57;94714.97;;;5.52;83.44
70072;BME280;57434;42.794;23.302;2023-04-12T01:57:02;94708.38;;;5.49;83.43
70072;BME280;57434;42.794;23.302;2023-04-12T01:58:05;94597.31;;;4.66;83.22
70072;BME280;57434;42.794;23.302;2023-04-12T01:59:10;94724.75;;;5.32;83.33
70072;BME280;57434;42.794;23.302;2023-04-12T02:00:14;94675.50;;;5.18;83.40
70072;BME280;57434;42.794;23.302;2023-04-12T02:01:17;94715.38;;;5.44;83.42
70072;BME280;57434;42.794;23.302;2023-04-12T02:02:20;94719.69;;;5.45;83.74
70072;BME280;57434;42.794;23.302;2023-04-12T02:03:23;94631.34;;;4.91;83.87
70072;BME280;57434;42.794;23.302;2023-04-12T02:04:25;94717.28;;;5.53;83.85
70072;BME280;57434;42.794;23.302;2023-04-12T02:05:28;94692.06;;;5.42;83.74
70072;BME280;57434;42.794;23.302;2023-04-12T02:06:30;94713.78;;;5.58;83.80
70072;BME280;57434;42.794;23.302;2023-04-12T02:07:34;94599.19;;;4.75;83.66
70072;BME280;57434;42.794;23.302;2023-04-12T02:08:36;94724.91;;;5.58;83.85
70072;BME280;57434;42.794;23.302;2023-04-12T02:09:38;94556.22;;;4.56;83.61
70072;BME280;57434;42.794;23.302;2023-04-12T02:10:40;94621.38;;;4.99;83.76
70072;BME280;57434;42.794;23.302;2023-04-12T02:11:45;94712.34;;;5.63;83.87
70072;BME280;57434;42.794;23.302;2023-04-12T02:12:47;94689.75;;;5.40;83.48
70072;BME280;57434;42.794;23.302;2023-04-12T02:13:49;94579.84;;;4.81;83.42
70072;BME280;57434;42.794;23.302;2023-04-12T02:14:51;94718.50;;;5.67;83.54
70072;BME280;57434;42.794;23.302;2023-04-12T02:15:53;94706.22;;;5.59;83.48
70072;BME280;57434;42.794;23.302;2023-04-12T02:16:55;94683.72;;;5.42;83.33
70072;BME280;57434;42.794;23.302;2023-04-12T02:17:57;94735.56;;;5.60;83.22
70072;BME280;57434;42.794;23.302;2023-04-12T02:18:59;94705.09;;;5.51;83.13
70072;BME280;57434;42.794;23.302;2023-04-12T02:20:02;94547.03;;;4.35;82.92
70072;BME280;57434;42.794;23.302;2023-04-12T02:21:05;94740.09;;;5.42;83.04
70072;BME280;57434;42.794;23.302;2023-04-12T02:22:07;94714.22;;;5.36;83.19
70072;BME280;57434;42.794;23.302;2023-04-12T02:23:08;94723.03;;;5.35;83.05
70072;BME280;57434;42.794;23.302;2023-04-12T02:24:11;94690.66;;;5.17;82.82
70072;BME280;57434;42.794;23.302;2023-04-12T02:25:14;94719.59;;;5.25;83.01
70072;BME280;57434;42.794;23.302;2023-04-12T02:26:16;94718.75;;;5.19;82.85
70072;BME280;57434;42.794;23.302;2023-04-12T02:27:18;94740.31;;;5.24;82.82
70072;BME280;57434;42.794;23.302;2023-04-12T02:28:19;94606.09;;;4.35;82.56
70072;BME280;57434;42.794;23.302;2023-04-12T02:29:21;94709.63;;;5.04;82.74
70072;BME280;57434;42.794;23.302;2023-04-12T02:30:23;94727.47;;;5.12;82.81
70072;BME280;57434;42.794;23.302;2023-04-12T02:31:25;94668.66;;;4.60;83.00
70072;BME280;57434;42.794;23.302;2023-04-12T02:32:27;94707.28;;;4.88;82.96
70072;BME280;57434;42.794;23.302;2023-04-12T02:33:28;94677.00;;;4.75;83.30
70072;BME280;57434;42.794;23.302;2023-04-12T02:34:30;94585.19;;;4.10;83.31
70072;BME280;57434;42.794;23.302;2023-04-12T02:35:32;94724.50;;;5.01;83.53
70072;BME280;57434;42.794;23.302;2023-04-12T02:36:34;94565.47;;;4.08;83.76
70072;BME280;57434;42.794;23.302;2023-04-12T02:37:36;94548.44;;;4.01;83.70
70072;BME280;57434;42.794;23.302;2023-04-12T02:38:37;94549.78;;;4.05;83.85
70072;BME280;57434;42.794;23.302;2023-04-12T02:39:39;94525.16;;;3.98;83.95
70072;BME280;57434;42.794;23.302;2023-04-12T02:40:41;94707.91;;;4.92;84.32
70072;BME280;57434;42.794;23.302;2023-04-12T02:41:44;94705.81;;;5.01;84.82
70072;BME280;57434;42.794;23.302;2023-04-12T02:42:45;94697.53;;;5.07;84.84
70072;BME280;57434;42.794;23.302;2023-04-12T02:43:47;94690.63;;;5.02;84.68
70072;BME280;57434;42.794;23.302;2023-04-12T02:44:49;94721.22;;;5.02;84.86
70072;BME280;57434;42.794;23.302;2023-04-12T02:45:51;94692.28;;;4.94;84.64
70072;BME280;57434;42.794;23.302;2023-04-12T02:46:53;94703.03;;;5.16;85.01
70072;BME280;57434;42.794;23.302;2023-04-12T02:47:55;94697.47;;;5.16;85.17
70072;BME280;57434;42.794;23.302;2023-04-12T02:48:56;94686.63;;;5.18;85.41
70072;BME280;57434;42.794;23.302;2023-04-12T02:49:58;94546.34;;;4.25;85.27
70072;BME280;57434;42.794;23.302;2023-04-12T02:51:00;94699.28;;;5.19;85.59
70072;BME280;57434;42.794;23.302;2023-04-12T02:52:02;94721.16;;;5.26;85.38
70072;BME280;57434;42.794;23.302;2023-04-12T02:53:04;94689.84;;;5.31;85.04
70072;BME280;57434;42.794;23.302;2023-04-12T02:54:06;94698.00;;;5.35;85.22
70072;BME280;57434;42.794;23.302;2023-04-12T02:55:08;94669.47;;;5.20;85.11
70072;BME280;57434;42.794;23.302;2023-04-12T02:56:10;94690.44;;;5.35;85.05
70072;BME280;57434;42.794;23.302;2023-04-12T02:57:12;94690.06;;;5.28;85.42
70072;BME280;57434;42.794;23.302;2023-04-12T02:58:13;94708.28;;;5.43;85.22
70072;BME280;57434;42.794;23.302;2023-04-12T02:59:15;94701.38;;;5.39;85.21
70072;BME280;57434;42.794;23.302;2023-04-12T03:00:17;94709.47;;;5.57;85.58
70072;BME280;57434;42.794;23.302;2023-04-12T03:01:19;94651.34;;;5.24;85.24
70072;BME280;57434;42.794;23.302;2023-04-12T03:02:21;94696.75;;;5.51;84.87
70072;BME280;57434;42.794;23.302;2023-04-12T03:03:24;94675.66;;;5.29;84.73
70072;BME280;57434;42.794;23.302;2023-04-12T03:04:26;94678.44;;;5.29;84.65
70072;BME280;57434;42.794;23.302;2023-04-12T03:05:28;94720.94;;;5.44;84.50
70072;BME280;57434;42.794;23.302;2023-04-12T03:06:30;94664.81;;;5.31;84.27
70072;BME280;57434;42.794;23.302;2023-04-12T03:07:32;94708.38;;;5.34;84.17
70072;BME280;57434;42.794;23.302;2023-04-12T03:08:33;94678.94;;;5.28;84.55
70072;BME280;57434;42.794;23.302;2023-04-12T03:09:35;94694.09;;;5.27;84.27
70072;BME280;57434;42.794;23.302;2023-04-12T03:10:37;94678.28;;;5.03;84.74
70072;BME280;57434;42.794;23.302;2023-04-12T03:11:39;94700.44;;;5.13;84.83
70072;BME280;57434;42.794;23.302;2023-04-12T03:12:41;94677.03;;;5.19;85.20
70072;BME280;57434;42.794;23.302;2023-04-12T03:13:42;94682.22;;;5.26;85.27
70072;BME280;57434;42.794;23.302;2023-04-12T03:14:44;94683.84;;;5.18;85.04
70072;BME280;57434;42.794;23.302;2023-04-12T03:15:46;94522.13;;;4.26;84.80
70072;BME280;57434;42.794;23.302;2023-04-12T03:16:48;94692.56;;;5.26;84.70
70072;BME280;57434;42.794;23.302;2023-04-12T03:17:50;94690.75;;;5.23;85.13
70072;BME280;57434;42.794;23.302;2023-04-12T03:18:52;94707.78;;;5.30;85.54
70072;BME280;57434;42.794;23.302;2023-04-12T03:19:54;94676.53;;;5.35;85.66
70072;BME280;57434;42.794;23.302;2023-04-12T03:20:56;94672.06;;;5.23;85.64
70072;BME280;57434;42.794;23.302;2023-04-12T03:21:58;94652.06;;;5.39;85.59
70072;BME280;57434;42.794;23.302;2023-04-12T03:22:59;94695.34;;;5.75;85.61
70072;BME280;57434;42.794;23.302;2023-04-12T03:24:01;94552.91;;;4.87;85.37
70072;BME280;57434;42.794;23.302;2023-04-12T03:25:04;94711.50;;;5.92;85.29
70072;BME280;57434;42.794;23.302;2023-04-12T03:26:06;94712.66;;;6.00;85.09
70072;BME280;57434;42.794;23.302;2023-04-12T03:27:08;94684.53;;;5.98;84.83
70072;BME280;57434;42.794;23.302;2023-04-12T03:28:09;94542.03;;;5.18;84.54
70072;BME280;57434;42.794;23.302;2023-04-12T03:29:11;94700.53;;;6.23;84.58
70072;BME280;57434;42.794;23.302;2023-04-12T03:30:13;94666.94;;;6.06;84.50
70072;BME280;57434;42.794;23.302;2023-04-12T03:31:15;94678.28;;;6.23;84.47
70072;BME280;57434;42.794;23.302;2023-04-12T03:32:17;94681.53;;;6.22;84.37
70072;BME280;57434;42.794;23.302;2023-04-12T03:33:18;94685.94;;;6.28;84.37
70072;BME280;57434;42.794;23.302;2023-04-12T03:34:20;94691.09;;;6.35;84.50
70072;BME280;57434;42.794;23.302;2023-04-12T03:35:22;94549.84;;;5.34;84.99
70072;BME280;57434;42.794;23.302;2023-04-12T03:36:24;94542.19;;;5.29;85.57
70072;BME280;57434;42.794;23.302;2023-04-12T03:37:26;94715.13;;;6.33;85.98
70072;BME280;57434;42.794;23.302;2023-04-12T03:38:28;94699.72;;;6.37;86.17
70072;BME280;57434;42.794;23.302;2023-04-12T03:39:29;94694.97;;;6.43;86.06
70072;BME280;57434;42.794;23.302;2023-04-12T03:40:31;94699.78;;;6.43;86.11
70072;BME280;57434;42.794;23.302;2023-04-12T03:41:33;94680.63;;;6.30;86.09
70072;BME280;57434;42.794;23.302;2023-04-12T03:42:35;94688.78;;;6.34;86.12
70072;BME280;57434;42.794;23.302;2023-04-12T03:43:36;94700.50;;;6.38;85.84
70072;BME280;57434;42.794;23.302;2023-04-12T03:44:38;94721.66;;;6.50;85.47
70072;BME280;57434;42.794;23.302;2023-04-12T03:45:41;94709.81;;;6.55;85.29
70072;BME280;57434;42.794;23.302;2023-04-12T03:46:44;94542.16;;;5.44;85.17
70072;BME280;57434;42.794;23.302;2023-04-12T03:47:45;94712.09;;;6.57;84.95
70072;BME280;57434;42.794;23.302;2023-04-12T03:48:48;94662.31;;;6.24;84.75
70072;BME280;57434;42.794;23.302;2023-04-12T03:49:50;94702.41;;;6.52;84.91
70072;BME280;57434;42.794;23.302;2023-04-12T03:51:11;94567.94;;;5.65;84.57
70072;BME280;57434;42.794;23.302;2023-04-12T03:52:13;94681.75;;;6.38;84.66
70072;BME280;57434;42.794;23.302;2023-04-12T03:53:14;94683.22;;;6.34;84.37
70072;BME280;57434;42.794;23.302;2023-04-12T03:54:16;94700.34;;;6.47;84.51
70072;BME280;57434;42.794;23.302;2023-04-12T03:55:18;94571.69;;;5.62;84.28
70072;BME280;57434;42.794;23.302;2023-04-12T03:56:20;94695.44;;;6.42;84.17
70072;BME280;57434;42.794;23.302;2023-04-12T03:57:21;94710.78;;;6.52;84.18
70072;BME280;57434;42.794;23.302;2023-04-12T03:58:23;94716.91;;;6.56;84.15
70072;BME280;57434;42.794;23.302;2023-04-12T03:59:25;94670.47;;;6.27;84.05
70072;BME280;57434;42.794;23.302;2023-04-12T04:00:27;94707.16;;;6.46;83.91
70072;BME280;57434;42.794;23.302;2023-04-12T04:01:29;94589.13;;;5.77;83.78
70072;BME280;57434;42.794;23.302;2023-04-12T04:02:31;94588.16;;;5.80;83.64
70072;BME280;57434;42.794;23.302;2023-04-12T04:03:33;94690.22;;;6.50;83.76
70072;BME280;57434;42.794;23.302;2023-04-12T04:04:35;94691.97;;;6.47;83.75
70072;BME280;57434;42.794;23.302;2023-04-12T04:05:37;94729.19;;;6.64;83.65
70072;BME280;57434;42.794;23.302;2023-04-12T04:06:39;94582.16;;;5.67;83.33
70072;BME280;57434;42.794;23.302;2023-04-12T04:07:41;94570.25;;;5.66;83.51
70072;BME280;57434;42.794;23.302;2023-04-12T04:08:43;94728.53;;;6.55;83.43
70072;BME280;57434;42.794;23.302;2023-04-12T04:09:45;94705.63;;;6.45;83.36
70072;BME280;57434;42.794;23.302;2023-04-12T04:10:47;94727.19;;;6.70;83.33
70072;BME280;57434;42.794;23.302;2023-04-12T04:11:49;94561.06;;;5.60;83.17
70072;BME280;57434;42.794;23.302;2023-04-12T04:12:50;94736.28;;;6.65;83.03
70072;BME280;57434;42.794;23.302;2023-04-12T04:13:52;94724.03;;;6.57;83.07
70072;BME280;57434;42.794;23.302;2023-04-12T04:14:54;94726.53;;;6.55;82.94
70072;BME280;57434;42.794;23.302;2023-04-12T04:16:02;94707.91;;;6.46;83.05
70072;BME280;57434;42.794;23.302;2023-04-12T04:17:04;94725.00;;;6.54;83.01
70072;BME280;57434;42.794;23.302;2023-04-12T04:18:06;94733.47;;;6.45;83.23
70072;BME280;57434;42.794;23.302;2023-04-12T04:19:08;94600.94;;;5.72;83.13
70072;BME280;57434;42.794;23.302;2023-04-12T04:20:10;94742.06;;;6.62;83.26
70072;BME280;57434;42.794;23.302;2023-04-12T04:21:12;94752.44;;;6.61;83.28
70072;BME280;57434;42.794;23.302;2023-04-12T04:22:14;94618.41;;;5.72;83.33
70072;BME280;57434;42.794;23.302;2023-04-12T04:23:16;94571.56;;;5.51;82.78
70072;BME280;57434;42.794;23.302;2023-04-12T04:24:17;94739.00;;;6.60;82.59
70072;BME280;57434;42.794;23.302;2023-04-12T04:25:19;94722.63;;;6.47;82.44
70072;BME280;57434;42.794;23.302;2023-04-12T04:26:21;94774.53;;;6.65;82.79
70072;BME280;57434;42.794;23.302;2023-04-12T04:27:23;94735.00;;;6.66;82.54
70072;BME280;57434;42.794;23.302;2023-04-12T04:28:25;94779.75;;;6.77;82.16
70072;BME280;57434;42.794;23.302;2023-04-12T04:29:27;94746.00;;;6.75;81.77
70072;BME280;57434;42.794;23.302;2023-04-12T04:30:28;94757.84;;;6.70;81.85
70072;BME280;57434;42.794;23.302;2023-04-12T04:31:31;94587.09;;;5.77;81.26
70072;BME280;57434;42.794;23.302;2023-04-12T04:32:33;94744.41;;;6.89;80.97
70072;BME280;57434;42.794;23.302;2023-04-12T04:33:35;94771.56;;;6.94;80.51
70072;BME280;57434;42.794;23.302;2023-04-12T04:34:37;94734.72;;;6.85;80.60
70072;BME280;57434;42.794;23.302;2023-04-12T04:35:39;94757.63;;;6.94;80.39
70072;BME280;57434;42.794;23.302;2023-04-12T04:36:41;94624.41;;;6.06;80.29
70072;BME280;57434;42.794;23.302;2023-04-12T04:37:43;94741.56;;;6.84;80.44
70072;BME280;57434;42.794;23.302;2023-04-12T04:38:45;94777.66;;;6.93;80.30
70072;BME280;57434;42.794;23.302;2023-04-12T04:39:47;94758.13;;;6.93;80.38
70072;BME280;57434;42.794;23.302;2023-04-12T04:40:51;94765.47;;;6.90;80.54
70072;BME280;57434;42.794;23.302;2023-04-12T04:41:53;94747.91;;;6.84;79.92
70072;BME280;57434;42.794;23.302;2023-04-12T04:42:55;94781.94;;;6.94;80.18
70072;BME280;57434;42.794;23.302;2023-04-12T04:43:57;94754.50;;;6.87;80.12
70072;BME280;57434;42.794;23.302;2023-04-12T04:44:59;94758.94;;;6.99;79.90
70072;BME280;57434;42.794;23.302;2023-04-12T04:46:01;94587.72;;;5.87;79.93
70072;BME280;57434;42.794;23.302;2023-04-12T04:47:03;94763.09;;;6.83;80.40
70072;BME280;57434;42.794;23.302;2023-04-12T04:48:05;94758.13;;;6.93;79.81
70072;BME280;57434;42.794;23.302;2023-04-12T04:49:07;94754.88;;;6.74;79.54
70072;BME280;57434;42.794;23.302;2023-04-12T04:50:09;94598.63;;;5.91;79.64
70072;BME280;57434;42.794;23.302;2023-04-12T04:51:11;94763.16;;;6.89;79.52
70072;BME280;57434;42.794;23.302;2023-04-12T04:52:13;94767.69;;;6.86;79.29
70072;BME280;57434;42.794;23.302;2023-04-12T04:53:17;94779.22;;;6.99;79.20
70072;BME280;57434;42.794;23.302;2023-04-12T04:54:20;94744.50;;;7.00;79.13
70072;BME280;57434;42.794;23.302;2023-04-12T04:55:21;94758.53;;;7.06;78.30
70072;BME280;57434;42.794;23.302;2023-04-12T04:56:23;94750.44;;;7.08;78.37
70072;BME280;57434;42.794;23.302;2023-04-12T04:57:25;94739.34;;;6.93;78.55
70072;BME280;57434;42.794;23.302;2023-04-12T04:58:27;94754.31;;;7.16;78.32
70072;BME280;57434;42.794;23.302;2023-04-12T04:59:29;94774.56;;;7.11;78.01
70072;BME280;57434;42.794;23.302;2023-04-12T05:00:31;94639.47;;;6.40;78.17
70072;BME280;57434;42.794;23.302;2023-04-12T05:01:34;94759.41;;;7.18;77.88
70072;BME280;57434;42.794;23.302;2023-04-12T05:02:40;94772.53;;;7.11;77.74
70072;BME280;57434;42.794;23.302;2023-04-12T05:03:42;94599.38;;;6.11;77.46
70072;BME280;57434;42.794;23.302;2023-04-12T05:04:44;94769.56;;;7.21;77.48
70072;BME280;57434;42.794;23.302;2023-04-12T05:05:48;94750.97;;;7.12;77.62
70072;BME280;57434;42.794;23.302;2023-04-12T05:06:49;94797.53;;;7.26;77.74
70072;BME280;57434;42.794;23.302;2023-04-12T05:07:51;94769.41;;;7.30;77.73
70072;BME280;57434;42.794;23.302;2023-04-12T05:08:53;94770.94;;;7.31;77.11
70072;BME280;57434;42.794;23.302;2023-04-12T05:09:55;94768.06;;;7.20;76.92
70072;BME280;57434;42.794;23.302;2023-04-12T05:10:57;94755.13;;;7.22;76.91
70072;BME280;57434;42.794;23.302;2023-04-12T05:11:59;94766.06;;;7.26;76.95
70072;BME280;57434;42.794;23.302;2023-04-12T05:13:01;94774.09;;;7.38;76.94
70072;BME280;57434;42.794;23.302;2023-04-12T05:14:03;94755.66;;;7.26;76.27
70072;BME280;57434;42.794;23.302;2023-04-12T05:15:05;94759.78;;;7.31;76.45
70072;BME280;57434;42.794;23.302;2023-04-12T05:16:12;94780.66;;;7.35;76.73
70072;BME280;57434;42.794;23.302;2023-04-12T05:17:14;94766.31;;;7.48;76.43
70072;BME280;57434;42.794;23.302;2023-04-12T05:18:16;94765.56;;;7.47;76.32
70072;BME280;57434;42.794;23.302;2023-04-12T05:19:18;94793.41;;;7.42;76.46
70072;BME280;57434;42.794;23.302;2023-04-12T05:20:19;94748.34;;;7.29;75.84
70072;BME280;57434;42.794;23.302;2023-04-12T05:21:21;94766.00;;;7.40;76.13
70072;BME280;57434;42.794;23.302;2023-04-12T05:22:25;94773.47;;;7.55;76.09
70072;BME280;57434;42.794;23.302;2023-04-12T05:23:26;94796.75;;;7.46;75.64
70072;BME280;57434;42.794;23.302;2023-04-12T05:24:28;94769.44;;;7.56;75.77
70072;BME280;57434;42.794;23.302;2023-04-12T05:25:30;94745.22;;;7.21;75.49
70072;BME280;57434;42.794;23.302;2023-04-12T05:26:32;94749.03;;;7.44;75.32
70072;BME280;57434;42.794;23.302;2023-04-12T05:27:34;94777.59;;;7.59;74.46
70072;BME280;57434;42.794;23.302;2023-04-12T05:28:36;94758.00;;;7.54;74.57
70072;BME280;57434;42.794;23.302;2023-04-12T05:29:37;94617.16;;;6.60;73.99
70072;BME280;57434;42.794;23.302;2023-04-12T05:30:39;94767.19;;;7.60;74.61
70072;BME280;57434;42.794;23.302;2023-04-12T05:31:41;94778.13;;;7.63;74.29
70072;BME280;57434;42.794;23.302;2023-04-12T05:32:43;94778.66;;;7.67;73.91
70072;BME280;57434;42.794;23.302;2023-04-12T05:33:45;94772.31;;;7.67;74.04
70072;BME280;57434;42.794;23.302;2023-04-12T05:34:46;94784.31;;;7.73;73.27
70072;BME280;57434;42.794;23.302;2023-04-12T05:35:48;94780.66;;;7.61;73.39
70072;BME280;57434;42.794;23.302;2023-04-12T05:36:50;94651.38;;;6.87;72.72
70072;BME280;57434;42.794;23.302;2023-04-12T05:37:52;94665.38;;;6.98;72.50
70072;BME280;57434;42.794;23.302;2023-04-12T05:38:54;94638.34;;;6.78;72.80
70072;BME280;57434;42.794;23.302;2023-04-12T05:39:56;94775.88;;;7.67;72.57
70072;BME280;57434;42.794;23.302;2023-04-12T05:40:58;94785.78;;;7.68;72.68
70072;BME280;57434;42.794;23.302;2023-04-12T05:41:59;94794.84;;;7.89;72.54
70072;BME280;57434;42.794;23.302;2023-04-12T05:43:01;94780.22;;;7.68;72.25